Flight Track Log - Related Links

Times and Time Zones

All times are in EDT time to prevent confusion due to time zone crossing. See the FLG3432 flight status page for this flight to view local times or setup timezone preferences in your user account.

Time Position Orientation Groundspeed Altitude Reporting Facility
EDT Latitude Longitude Course Direction KTS MPH feet Rate Location/Type
Thu 06:38:40 AM 42.8047 -73.8211 304° West 169 194 2,800  Level Boston Center
Thu 06:40:00 AM 42.8073 -74.1641 282° West  Level FlightAware Approximate
Thu 06:40:08 AM 42.8728 -73.8708 332° Northwest 194 223 5,700  Level Boston Center
Thu 06:41:00 AM 42.8266 -74.2893 282° West  Level FlightAware Approximate
Thu 06:41:08 AM 42.9286 -73.9117 332° Northwest 228 262 8,000  Level Boston Center
Thu 06:42:00 AM 42.8469 -74.4143 283° West  Level FlightAware Approximate
Thu 06:42:08 AM 42.9967 -73.9589 333° Northwest 239 275 11,000  Level Boston Center
Thu 06:43:00 AM 42.8692 -74.5383 304° West  Level FlightAware Approximate
Thu 06:43:08 AM 43.0628 -74.0031 334° Northwest 273 314 12,300  Level Boston Center
Thu 06:44:08 AM 43.1261 -74.0900 315° West 294 338 14,600 2,250 Climbing Boston Center
Thu 06:45:08 AM 43.1519 -74.1903 289° West 294 338 16,800 2,100 Climbing Boston Center
Thu 06:46:08 AM 43.1833 -74.3108 290° West 301 346 18,800 1,700 Climbing Boston Center
Thu 06:47:08 AM 43.2106 -74.4172 289° West 315 362 20,200 1,750 Climbing Boston Center
Thu 06:48:08 AM 43.2400 -74.5319 289° West 320 368 22,300 1,800 Climbing Boston Center
Thu 06:49:08 AM 43.2711 -74.6500 290° West 331 381 23,800 1,500 Climbing Boston Center
Thu 06:50:08 AM 43.3019 -74.7711 289° West 331 381 25,300 1,350 Climbing Boston Center
Thu 06:51:08 AM 43.3328 -74.8922 289° West 331 381 26,500 1,200 Climbing Boston Center
Thu 06:52:08 AM 43.3653 -75.0192 289° West 338 389 27,700 1,150 Climbing Boston Center
Thu 06:53:08 AM 43.3978 -75.1461 289° West 350 403 28,800 1,450 Climbing Boston Center
Thu 06:54:08 AM 43.4342 -75.2881 289° West 356 410 30,600 1,600 Climbing Boston Center
Thu 06:55:08 AM 43.4642 -75.4125 288° West 356 410 32,000 700 Climbing Boston Center
Thu 06:56:08 AM 43.4964 -75.5400 289° West 351 404 32,000  Level Boston Center
Thu 06:57:08 AM 43.5281 -75.6675 289° West 351 404 32,000  Level Boston Center
Thu 06:58:08 AM 43.5578 -75.7953 288° West 351 404 32,000  Level Boston Center
Thu 06:59:08 AM 43.5894 -75.9233 289° West 351 404 32,000  Level Boston Center
Thu 07:00:08 AM 43.6211 -76.0483 289° West 351 404 32,000 400 Level Boston Center
Thu 07:01:08 AM 43.6503 -76.1764 288° West 351 404 32,800 950 Climbing Boston Center
Thu 07:02:08 AM 43.6814 -76.3047 289° West 351 404 33,900 1,000 Climbing Boston Center
Thu 07:03:08 AM 43.7106 -76.4272 288° West 345 397 34,800 850 Climbing Boston Center
Thu 07:04:08 AM 43.7375 -76.5528 287° West 345 397 35,600 600 Climbing Boston Center
Thu 07:05:08 AM 43.7664 -76.6756 288° West 345 397 36,000 209 Climbing Boston Center
Thu 07:06:03 AM 43.7833 -76.7667 284° West 340 391 36,000  Level Toronto Center
Thu 07:07:03 AM 43.8167 -76.8833 292° West 340 391 36,000  Level Toronto Center
Thu 07:08:03 AM 43.8333 -77.0000 281° West 340 391 36,000  Level Toronto Center
Thu 07:09:03 AM 43.8667 -77.1333 289° West 340 391 36,000  Level Toronto Center
Thu 07:10:03 AM 43.8833 -77.2500 281° West 340 391 36,000  Level Toronto Center
Thu 07:11:03 AM 43.9333 -77.3833 298° West 340 391 36,000  Level Toronto Center
Thu 07:12:03 AM 43.9500 -77.5000 281° West 340 391 36,000  Level Toronto Center
Thu 07:13:03 AM 43.9833 -77.6333 289° West 340 391 36,000  Level Toronto Center
Thu 07:14:03 AM 44.0000 -77.7500 281° West 340 391 36,000  Level Toronto Center
Thu 07:15:03 AM 44.0333 -77.8667 292° West 340 391 36,000  Level Toronto Center
Thu 07:16:03 AM 44.0500 -78.0167 279° West 340 391 36,000  Level Toronto Center
Thu 07:17:03 AM 44.0833 -78.1167 295° West 340 391 36,000  Level Toronto Center
Thu 07:18:03 AM 44.1000 -78.2667 279° West 340 391 36,000  Level Toronto Center
Thu 07:19:04 AM 44.1333 -78.4000 289° West 340 391 36,000  Level Toronto Center
Thu 07:20:03 AM 44.1833 -78.5167 301° West 340 391 36,000  Level Toronto Center
Thu 07:21:03 AM 44.2000 -78.6500 280° West 340 391 36,000  Level Toronto Center
Thu 07:22:03 AM 44.2333 -78.7667 292° West 340 391 36,000  Level Toronto Center
Thu 07:23:03 AM 44.2500 -78.9167 279° West 340 391 36,000  Level Toronto Center
Thu 07:24:04 AM 44.2833 -79.0333 292° West 340 391 36,000  Level Toronto Center
Thu 07:25:04 AM 44.3000 -79.1667 280° West 340 391 36,000  Level Toronto Center
Thu 07:26:04 AM 44.3167 -79.2833 281° West 340 391 36,000  Level Toronto Center
Thu 07:27:04 AM 44.3333 -79.4167 280° West 340 391 36,000  Level Toronto Center
Thu 07:28:04 AM 44.3333 -79.5333 270° West 340 391 36,000  Level Toronto Center
Thu 07:29:04 AM 44.3500 -79.6833 279° West 340 391 36,000  Level Toronto Center
Thu 07:30:04 AM 44.3500 -79.8000 270° West 340 391 36,000  Level Toronto Center
Thu 07:31:04 AM 44.3500 -79.9333 270° West 340 391 36,000  Level Toronto Center
Thu 07:32:04 AM 44.3667 -80.0833 279° West 340 391 36,000  Level Toronto Center
Thu 07:33:04 AM 44.3667 -80.2000 270° West 340 391 36,000  Level Toronto Center
Thu 07:34:04 AM 44.3833 -80.3333 280° West 340 391 36,000  Level Toronto Center
Thu 07:35:04 AM 44.3833 -80.4667 270° West 350 403 36,000  Level Toronto Center
Thu 07:36:04 AM 44.4000 -80.6167 279° West 350 403 36,000  Level Toronto Center
Thu 07:37:04 AM 44.4000 -80.7333 270° West 350 403 36,000  Level Toronto Center
Thu 07:38:04 AM 44.4000 -80.8667 270° West 350 403 36,000  Level Toronto Center
Thu 07:39:04 AM 44.4000 -81.0167 270° West 350 403 36,000  Level Toronto Center
Thu 07:40:04 AM 44.4167 -81.1500 280° West 350 403 36,000  Level Toronto Center
Thu 07:41:04 AM 44.4167 -81.2833 270° West 350 403 36,000  Level Toronto Center
Thu 07:42:04 AM 44.4333 -81.4000 281° West 350 403 36,000  Level Toronto Center
Thu 07:43:04 AM 44.4333 -81.5500 270° West 350 403 36,000  Level Toronto Center
Thu 07:44:04 AM 44.4500 -81.6833 280° West 350 403 36,000  Level Toronto Center
Thu 07:45:04 AM 44.4500 -81.8333 270° West 350 403 36,000  Level Toronto Center
Thu 07:46:04 AM 44.4500 -81.9667 270° West 350 403 36,000  Level Toronto Center
Thu 07:47:04 AM 44.4500 -82.1167 270° West 350 403 36,000  Level Toronto Center
Thu 07:48:04 AM 44.4667 -82.2333 281° West 340 391 36,000  Level Toronto Center
Thu 07:49:04 AM 44.4667 -82.3667 270° West 350 403 36,000  Level Toronto Center
Thu 07:50:04 AM 44.4833 -82.5000 280° West 350 403 36,000  Level Toronto Center
Thu 07:51:04 AM 44.4833 -82.6500 270° West 350 403 36,000  Level Toronto Center
Thu 07:51:46 AM 44.4953 -82.7211 283° West 349 402 36,000  Level Minneapolis Center
Thu 07:52:47 AM 44.5058 -82.8578 276° West 352 405 36,000  Level Minneapolis Center
Thu 07:53:48 AM 44.5194 -83.0231 277° West 355 409 36,000  Level Minneapolis Center
Thu 07:54:50 AM 44.5306 -83.1619 276° West 357 411 36,000  Level Minneapolis Center
Thu 07:55:51 AM 44.5417 -83.3017 276° West 361 415 36,000  Level Minneapolis Center
Thu 07:56:52 AM 44.5547 -83.4431 277° West 364 419 36,000  Level Minneapolis Center
Thu 07:57:54 AM 44.5642 -83.5853 275° West 367 422 36,000  Level Minneapolis Center
Thu 07:58:55 AM 44.5758 -83.7281 277° West 368 423 36,000 148 Level Minneapolis Center
Thu 07:59:56 AM 44.5864 -83.8733 276° West 373 429 36,300 780 Climbing Minneapolis Center
Thu 08:00:58 AM 44.5986 -84.0136 277° West 367 422 37,600 829 Climbing Minneapolis Center
Thu 08:01:59 AM 44.6061 -84.1500 274° West 356 410 38,000 197 Climbing Minneapolis Center
Thu 08:03:00 AM 44.6192 -84.3164 276° West 358 412 38,000  Level Minneapolis Center
Thu 08:04:02 AM 44.6292 -84.4556 276° West 359 413 38,000  Level Minneapolis Center
Thu 08:05:03 AM 44.6392 -84.5958 276° West 361 415 38,000  Level Minneapolis Center
Thu 08:06:04 AM 44.6483 -84.7389 275° West 366 421 38,000  Level Minneapolis Center
Thu 08:07:06 AM 44.6578 -84.8814 275° West 369 425 38,000  Level Minneapolis Center
Thu 08:08:07 AM 44.6672 -85.0250 275° West 371 427 38,000  Level Minneapolis Center
Thu 08:09:09 AM 44.6764 -85.1717 275° West 374 430 38,000  Level Minneapolis Center
Thu 08:10:10 AM 44.6861 -85.3169 275° West 375 432 38,000  Level Minneapolis Center
Thu 08:11:12 AM 44.6944 -85.4642 275° West 377 434 38,000  Level Minneapolis Center
Thu 08:12:13 AM 44.7050 -85.6397 275° West 377 434 38,000  Level Minneapolis Center
Thu 08:13:15 AM 44.7131 -85.7858 274° West 378 435 38,000  Level Minneapolis Center
Thu 08:14:16 AM 44.7228 -85.9342 275° West 380 437 38,000  Level Minneapolis Center
Thu 08:15:18 AM 44.7308 -86.0814 274° West 381 438 38,000  Level Minneapolis Center
Thu 08:16:19 AM 44.7386 -86.2303 274° West 382 440 38,000  Level Minneapolis Center
Thu 08:17:21 AM 44.7467 -86.3772 274° West 380 437 38,000  Level Minneapolis Center
Thu 08:18:22 AM 44.7539 -86.5225 274° West 377 434 38,000  Level Minneapolis Center
Thu 08:19:24 AM 44.7614 -86.6692 274° West 377 434 38,000  Level Minneapolis Center
Thu 08:20:25 AM 44.7672 -86.8014 274° West 377 434 38,000  Level Minneapolis Center
Thu 08:21:27 AM 44.7761 -86.9781 274° West 377 434 38,000 -48 Level Minneapolis Center
Thu 08:22:29 AM 44.7825 -87.1231 274° West 373 429 37,900 -927 Descending Minneapolis Center
Thu 08:23:30 AM 44.7900 -87.3011 273° West 379 436 36,100 -927 Descending Minneapolis Center
Thu 08:24:32 AM 44.7969 -87.4483 274° West 379 436 36,000 -49 Descending Minneapolis Center
Thu 08:25:33 AM 44.8022 -87.5678 274° West 380 437 36,000  Level Minneapolis Center
Thu 08:26:35 AM 44.8078 -87.7181 273° West 385 443 36,000  Level Minneapolis Center
Thu 08:27:36 AM 44.8153 -87.8992 273° West 387 445 36,000  Level Minneapolis Center
Thu 08:28:38 AM 44.8203 -88.0503 273° West 389 448 36,000  Level Minneapolis Center
Thu 08:29:39 AM 44.8258 -88.2017 273° West 387 445 36,000  Level Minneapolis Center
Thu 08:30:41 AM 44.8319 -88.3564 273° West 391 450 36,000  Level Minneapolis Center
Thu 08:31:43 AM 44.8392 -88.5344 273° West 392 451 36,000  Level Minneapolis Center
Thu 08:32:44 AM 44.8431 -88.6867 272° West 391 450 36,000  Level Minneapolis Center
Thu 08:33:46 AM 44.8483 -88.8386 273° West 389 448 36,000  Level Minneapolis Center
Thu 08:34:47 AM 44.8533 -88.9917 273° West 391 450 36,000 -293 Level Minneapolis Center
Thu 08:35:49 AM 44.8569 -89.1425 272° West 389 448 35,400 -1,024 Descending Minneapolis Center
Thu 08:36:50 AM 44.8606 -89.2953 272° West 389 448 33,900 -1,561 Descending Minneapolis Center
Thu 08:37:52 AM 44.8653 -89.4692 272° West 383 441 32,200 -919 Descending Minneapolis Center
Thu 08:38:54 AM 44.8689 -89.6239 272° West 393 452 32,000 -98 Descending Minneapolis Center
Thu 08:39:55 AM 44.8725 -89.7872 272° West 395 455 32,000  Level Minneapolis Center
Thu 08:40:57 AM 44.8756 -89.9444 272° West 399 459 32,000  Level Minneapolis Center
Thu 08:41:58 AM 44.8786 -90.1025 272° West 402 463 32,000  Level Minneapolis Center
Thu 08:43:00 AM 44.8828 -90.2597 272° West 402 463 32,000  Level Minneapolis Center
Thu 08:44:02 AM 44.8844 -90.4186 271° West 404 465 32,000  Level Minneapolis Center
Thu 08:45:16 AM 44.8881 -90.6075 272° West 402 463 32,000  Level Minneapolis Center
Thu 08:46:17 AM 44.9033 -90.7614 278° West 396 456 32,000  Level Minneapolis Center
Thu 08:47:19 AM 44.9194 -90.9358 277° West 394 453 32,000  Level Minneapolis Center
Thu 08:48:20 AM 44.9331 -91.0858 277° West 389 448 32,000 -976 Level Minneapolis Center
Thu 08:49:22 AM 44.9500 -91.2375 279° West 392 451 30,000 -2,074 Descending Minneapolis Center
Thu 08:50:36 AM 44.9639 -91.3822 278° West 381 438 27,300 -2,603 Descending Minneapolis Center
Thu 08:51:38 AM 44.9811 -91.5517 278° West 369 425 24,100 -2,634 Descending Minneapolis Center
Thu 08:52:39 AM 44.9922 -91.6656 278° West 368 423 21,900 -2,878 Descending Minneapolis Center
Thu 08:53:41 AM 45.0103 -91.8592 278° West 358 412 18,200 -2,878 Descending Minneapolis Center
Thu 08:54:42 AM 45.0208 -91.9664 278° West 348 400 16,000 -2,634 Descending Minneapolis Center
Thu 08:55:44 AM 45.0353 -92.1222 278° West 335 386 12,800 -2,390 Descending Minneapolis Center
Thu 08:56:45 AM 45.0464 -92.2500 277° West 329 379 11,100 -878 Descending Minneapolis Center
Thu 08:57:47 AM 45.0347 -92.3786 263° West 334 384 11,000 -439 Descending Minneapolis Center
Thu 08:58:48 AM 45.0011 -92.4900 247° West 307 353 10,200 -1,073 Descending Minneapolis Center
Thu 08:59:50 AM 44.9547 -92.5808 234° Southwest 284 327 8,800 -1,512 Descending Minneapolis Center
Thu 09:00:51 AM 44.9100 -92.6678 234° Southwest 276 318 7,100 -927 Descending Minneapolis Center
Thu 09:01:53 AM 44.8539 -92.7714 233° Southwest 278 320 6,900 -489 Descending Minneapolis Center
Thu 09:03:06 AM 44.7967 -92.8336 218° Southwest 263 303 6,000 -844 Descending Minneapolis Center
Thu 09:04:08 AM 44.7939 -92.9208 267° West 183 211 5,000 -976 Descending Minneapolis Center
Thu 09:05:09 AM 44.7917 -92.9886 267° West 176 203 4,000 -984 Descending Minneapolis Center

Login

Don't have an account? Register now (free) for customized features, flight alerts, and more!